M I D A S
Marine Information and Data Acquisition System
Tripno 1870 of the Zeeleeuw from 2010-04-28 06:30:26 to 2010-04-28 15:18:35
Back to CruiseResearch ActivitiesStationsMapUnderway DataData graphs

EquipmentUnitsComment
TimeDGPSUTC
LatitudeDGPSDM.mWGS84
LongitudeDGPSDM.mWGS84
HeadingGyrodeg 
SOGDGPSknotsSpeed over ground
COGDGPSdegCourse over ground
DepthEcho soundermeters200 kHz
Missing or incorrect values are displayed as -999
Navigation data collected by the RV Zeeleeuw from 2010-04-28 06:55:22 to 2010-04-28 15:37:59
Time Latitude Longitude Heading SOG COG Depth
2010-04-28 06:56:27 51°13.68 2°55.881 107.4 3.9 288 -999
2010-04-28 06:57:27 51°13.692 2°55.785 90.2 3.2 277 4.8
2010-04-28 06:58:27 51°13.694 2°55.756 51.6 1 258 -999
2010-04-28 06:59:27 51°13.705 2°55.747 7.5 1.8 352 -999
2010-04-28 07:00:27 51°13.758 2°55.698 331.9 5.4 331 -999
2010-04-28 07:01:27 51°13.866 2°55.616 337.9 8.3 336 -999
2010-04-28 07:02:27 51°14.006 2°55.517 336.6 9.9 335 9.5
2010-04-28 07:03:27 51°14.164 2°55.394 334 10.8 332 9.5
2010-04-28 07:04:26 51°14.314 2°55.251 330.2 10.7 328 9.4
2010-04-28 07:05:24 51°14.466 2°55.099 329.6 11.7 328 9.2
2010-04-28 07:06:23 51°14.615 2°54.917 334.5 11.3 326 10
2010-04-28 07:07:24 51°14.787 2°54.735 332.3 12.7 325 10.4
2010-04-28 07:08:23 51°14.966 2°54.552 334.3 12.7 327 8.3
2010-04-28 07:09:23 51°15.154 2°54.426 353.3 11.8 347 6.9
2010-04-28 07:10:23 51°15.338 2°54.464 27.6 11.3 25 5.5
2010-04-28 07:11:23 51°15.485 2°54.641 52.1 11.1 52 7.6
2010-04-28 07:12:23 51°15.584 2°54.893 61.6 11.2 61 7.6
2010-04-28 07:13:23 51°15.692 2°55.134 54.6 11.3 55 7.7
2010-04-28 07:14:23 51°15.789 2°55.393 58.8 11.3 58 5.7
2010-04-28 07:15:23 51°15.882 2°55.655 60.5 11.4 60 7.8
2010-04-28 07:16:23 51°15.979 2°55.918 61 11.6 60 7.8
2010-04-28 07:17:23 51°16.074 2°56.19 61.3 11.8 62 7.8
2010-04-28 07:18:23 51°16.164 2°56.471 66.6 11.9 68 7.8
2010-04-28 07:19:23 51°16.229 2°56.771 68.2 11.9 70 7.6
2010-04-28 07:20:23 51°16.301 2°57.043 69.3 10.8 70 5.7
2010-04-28 07:21:23 51°16.371 2°57.307 57.8 11 52 7.6
2010-04-28 07:22:23 51°16.502 2°57.524 46 11.7 45 7.8
2010-04-28 07:23:23 51°16.638 2°57.749 46 11.9 44 7.9
2010-04-28 07:24:29 51°16.789 2°58.002 49.8 12 48 8.2
2010-04-28 07:25:39 51°16.95 2°58.271 50 12.1 49 8.1
2010-04-28 07:27:03 51°17.123 2°58.621 53.7 12 46 7.9
2010-04-28 07:28:16 51°17.318 2°58.841 35.6 11.6 32 7.3
2010-04-28 07:29:17 51°17.396 2°59.017 89.7 5.8 105 7.6
2010-04-28 07:30:17 51°17.342 2°59.096 136.2 4 156 8
2010-04-28 07:31:17 51°17.283 2°59.12 154 3.7 178 8.3
2010-04-28 07:32:17 51°17.222 2°59.109 176.9 3.8 194 8.3
2010-04-28 07:33:17 51°17.161 2°59.065 202.3 3.9 214 8.4
2010-04-28 07:34:16 51°17.113 2°58.999 221.2 3.9 227 8.4
2010-04-28 07:35:16 51°17.072 2°58.92 226.1 3.8 231 8.5
2010-04-28 07:36:17 51°17.032 2°58.842 225.1 3.7 232 8.5
2010-04-28 07:37:16 51°16.994 2°58.767 224.9 3.7 232 8.4
2010-04-28 07:38:17 51°16.954 2°58.691 224.4 3.7 229 8.5
2010-04-28 07:39:16 51°16.916 2°58.618 222.9 3.7 230 8.5
2010-04-28 07:40:16 51°16.876 2°58.544 223.6 3.7 228 8.6
2010-04-28 07:41:16 51°16.836 2°58.47 224.3 3.7 229 8.5
2010-04-28 07:42:17 51°16.796 2°58.393 224.3 3.7 230 8.5
2010-04-28 07:43:17 51°16.756 2°58.317 224.3 3.7 231 8.6
2010-04-28 07:44:17 51°16.715 2°58.242 224.3 3.7 229 8.5
2010-04-28 07:45:17 51°16.675 2°58.167 224.5 3.7 230 8.5
2010-04-28 07:46:16 51°16.635 2°58.092 227 3.7 231 8.5
2010-04-28 07:47:17 51°16.6 2°58.009 239.7 3.7 238 8.4
2010-04-28 07:48:16 51°16.569 2°57.926 241.5 3.7 240 8.4
2010-04-28 07:49:17 51°16.543 2°57.837 257.6 3.5 250 8.3
2010-04-28 07:50:16 51°16.527 2°57.749 266.5 3.4 256 8.4
2010-04-28 07:51:16 51°16.513 2°57.662 266.1 3.6 256 8.4
2010-04-28 07:52:16 51°16.498 2°57.549 273 4.8 263 8.5
2010-04-28 07:53:16 51°16.515 2°57.388 301 7.6 294 8.5
2010-04-28 07:54:16 51°16.58 2°57.226 324.4 5.7 312 8.7
2010-04-28 07:55:16 51°16.636 2°57.159 351.9 3.2 333 9.2
2010-04-28 07:56:16 51°16.674 2°57.136 9.5 2.1 346 9.3
2010-04-28 07:57:16 51°16.722 2°57.132 18.4 4.1 10 9
2010-04-28 07:58:16 51°16.785 2°57.221 64.6 6.4 71 8.9
2010-04-28 07:59:16 51°16.751 2°57.367 134.7 5.1 148 9.2
2010-04-28 08:00:16 51°16.687 2°57.401 154.5 3.5 174 9.1
2010-04-28 08:01:16 51°16.636 2°57.395 169.7 2.9 192 9.1
2010-04-28 08:02:16 51°16.591 2°57.374 179.4 3.3 199 8.9
2010-04-28 08:03:16 51°16.537 2°57.276 250.2 7.6 247 8.9
2010-04-28 08:04:16 51°16.458 2°56.994 247.8 13.8 246 8.6
2010-04-28 08:05:16 51°16.374 2°56.642 251 14.5 248 8.7
2010-04-28 08:06:16 51°16.293 2°56.276 255.5 14.7 254 8.7
2010-04-28 08:07:16 51°16.222 2°55.901 254.7 14.9 252 8.8
2010-04-28 08:08:16 51°16.164 2°55.517 263.2 14.9 262 9.2
2010-04-28 08:09:16 51°16.122 2°55.126 262.8 15 259 9.4
2010-04-28 08:10:16 51°16.082 2°54.732 264.5 15 262 9.7
2010-04-28 08:11:16 51°16.047 2°54.337 264.9 15.1 262 10.2
2010-04-28 08:12:16 51°16.009 2°53.94 264.6 15.2 260 10.4
2010-04-28 08:13:16 51°15.968 2°53.543 262.8 15.1 260 10.6
2010-04-28 08:14:16 51°15.909 2°53.154 258.1 15 254 10.9
2010-04-28 08:15:16 51°15.847 2°52.768 257.8 15 255 11.1
2010-04-28 08:16:16 51°15.785 2°52.382 257.9 15 255 11.3
2010-04-28 08:17:16 51°15.723 2°51.997 257.9 15 256 11.6
2010-04-28 08:18:16 51°15.663 2°51.612 259.6 14.9 257 11.8
2010-04-28 08:19:16 51°15.543 2°51.277 236.1 14.9 236 12
2010-04-28 08:20:16 51°15.411 2°50.938 240.9 15 242 12.1
2010-04-28 08:21:16 51°15.35 2°50.558 267.2 14.8 265 12.1
2010-04-28 08:22:16 51°15.338 2°50.167 272.9 14.7 271 12.2
2010-04-28 08:23:16 51°15.396 2°49.797 297.6 14.3 294 12.3
2010-04-28 08:24:16 51°15.496 2°49.452 299.6 14.3 294 12.4
2010-04-28 08:25:16 51°15.536 2°49.082 273 14.4 269 11.3
2010-04-28 08:26:16 51°15.519 2°48.7 268.2 14.4 264 9.8
2010-04-28 08:27:16 51°15.502 2°48.317 271.1 14.5 269 9.6
2010-04-28 08:28:16 51°15.387 2°48.056 188.5 12.8 182 9.6
2010-04-28 08:29:16 51°15.202 2°47.946 238.8 12.9 248 10
2010-04-28 08:30:16 51°15.19 2°47.597 261.3 13.8 259 9.1
2010-04-28 08:31:16 51°15.182 2°47.229 267.9 14.2 264 9.3
2010-04-28 08:32:16 51°15.165 2°46.854 273.7 14.3 270 10
2010-04-28 08:33:16 51°15.112 2°46.481 257.9 14.5 256 10.8
2010-04-28 08:34:16 51°15.054 2°46.106 257.2 14.7 256 11.6
2010-04-28 08:35:16 51°14.999 2°45.729 259.8 14.6 258 12.9
2010-04-28 08:36:16 51°14.931 2°45.357 248.1 14.7 245 13.8
2010-04-28 08:37:16 51°14.857 2°44.985 260.1 14.7 258 14.6
2010-04-28 08:38:16 51°14.785 2°44.612 247.6 14.8 246 14.9
2010-04-28 08:39:16 51°14.709 2°44.241 259.2 14.8 257 15.7
2010-04-28 08:40:16 51°14.654 2°43.86 258.9 14.8 256 16
2010-04-28 08:41:16 51°14.592 2°43.479 258.7 14.9 257 16.9
2010-04-28 08:42:16 51°14.542 2°43.092 260.8 14.9 258 17.4
2010-04-28 08:43:16 51°14.493 2°42.704 261.3 15 259 17.3
2010-04-28 08:44:16 51°14.444 2°42.317 261.7 14.8 259 17
2010-04-28 08:45:16 51°14.396 2°41.938 261.4 14.5 258 16
2010-04-28 08:46:16 51°14.346 2°41.564 261.3 14.4 258 14.5
2010-04-28 08:47:16 51°14.304 2°41.19 263.1 14.3 260 14
2010-04-28 08:48:16 51°14.266 2°40.816 265.7 14.3 264 14.5
2010-04-28 08:49:16 51°14.249 2°40.442 270.3 14.2 267 13.9
2010-04-28 08:50:16 51°14.233 2°40.068 269.5 14.1 266 13.5
2010-04-28 08:51:16 51°14.217 2°39.694 270.1 14.1 266 13.2
2010-04-28 08:52:16 51°14.2 2°39.32 268.8 14.2 265 12.9
2010-04-28 08:53:16 51°14.179 2°38.944 269.3 14.3 265 12.2
2010-04-28 08:54:16 51°14.159 2°38.564 269.7 14.5 266 15.4
2010-04-28 08:55:16 51°14.141 2°38.181 272.4 14.5 268 17.8
2010-04-28 08:56:16 51°14.144 2°37.796 275.9 14.5 271 19.5
2010-04-28 08:57:16 51°14.147 2°37.41 275.5 14.5 270 17.1
2010-04-28 08:58:16 51°14.154 2°37.026 278.7 14.3 275 14.5
2010-04-28 08:59:16 51°14.183 2°36.652 281.9 14.1 278 12.7
2010-04-28 09:00:16 51°14.221 2°36.285 286.1 14 284 11.5
2010-04-28 09:01:16 51°14.288 2°35.933 294 13.8 293 11.8
2010-04-28 09:02:16 51°14.417 2°35.634 314.2 13.7 314 16.5
2010-04-28 09:03:16 51°14.598 2°35.418 331.9 13.7 327 18.9
2010-04-28 09:04:16 51°14.788 2°35.222 332.6 13.6 327 19.6
2010-04-28 09:05:16 51°14.992 2°35.079 347.2 13.1 347 24
2010-04-28 09:06:16 51°15.207 2°35.033 1.9 12.9 356 26
2010-04-28 09:07:16 51°15.421 2°35.003 0.9 12.9 354 26.6
2010-04-28 09:08:16 51°15.634 2°34.964 0.8 12.8 353 26.6
2010-04-28 09:09:16 51°15.844 2°34.919 0.1 11.6 352 26.3
2010-04-28 09:10:16 51°15.976 2°34.887 4.7 5.9 353 26
2010-04-28 09:11:16 51°16.051 2°34.88 16.7 3.6 2 26.7
2010-04-28 09:12:16 51°16.097 2°34.899 37.2 2.7 31 26.2
2010-04-28 09:13:16 51°16.13 2°34.975 71.7 4.4 84 25.7
2010-04-28 09:14:16 51°16.09 2°35.082 129.3 5.6 148 26.6
2010-04-28 09:15:16 51°16.003 2°35.107 169.1 4.7 186 26.3
2010-04-28 09:16:16 51°15.935 2°35.073 193.9 4 206 26.2
2010-04-28 09:17:16 51°15.882 2°35.02 210.4 3.6 218 26.9
2010-04-28 09:18:16 51°15.841 2°34.956 226.1 3.4 229 26.7
2010-04-28 09:19:16 51°15.808 2°34.887 238.3 3.3 234 26.7
2010-04-28 09:20:16 51°15.775 2°34.814 235.2 3.5 233 26.9
2010-04-28 09:21:16 51°15.74 2°34.738 235.5 3.6 234 26.6
2010-04-28 09:22:16 51°15.704 2°34.66 236.7 3.6 235 26.8
2010-04-28 09:23:16 51°15.669 2°34.581 236.9 3.7 234 26.6
2010-04-28 09:24:16 51°15.634 2°34.502 236.7 3.7 234 26.9
2010-04-28 09:25:16 51°15.599 2°34.423 236.7 3.7 235 26.4
2010-04-28 09:26:16 51°15.564 2°34.344 236.4 3.6 234 26.6
2010-04-28 09:27:16 51°15.529 2°34.267 236.2 3.6 235 26
2010-04-28 09:28:16 51°15.494 2°34.19 236 3.6 233 25.9
2010-04-28 09:29:16 51°15.459 2°34.114 236.1 3.6 233 25.2
2010-04-28 09:30:16 51°15.423 2°34.038 236.3 3.6 234 25.1
2010-04-28 09:31:16 51°15.387 2°33.962 235.9 3.6 233 24.9
2010-04-28 09:32:16 51°15.352 2°33.887 236.5 3.5 233 24.7
2010-04-28 09:33:16 51°15.317 2°33.813 236.3 3.5 233 24.6
2010-04-28 09:34:16 51°15.282 2°33.74 235.9 3.5 233 24.3
2010-04-28 09:35:16 51°15.248 2°33.666 238.7 3.5 235 23.8
2010-04-28 09:36:16 51°15.22 2°33.588 257.8 3.2 248 24
2010-04-28 09:37:16 51°15.207 2°33.509 277.2 3 262 23.5
2010-04-28 09:38:16 51°15.204 2°33.433 285.4 2.8 269 23.2
2010-04-28 09:39:16 51°15.206 2°33.357 291.7 3 276 21.5
2010-04-28 09:40:16 51°15.219 2°33.279 309.5 2.9 299 19
2010-04-28 09:41:16 51°15.258 2°33.242 350.7 2.9 354 16.1
2010-04-28 09:42:16 51°15.306 2°33.263 24.4 3 32 15.3
2010-04-28 09:43:16 51°15.338 2°33.311 43.6 2.4 54 15.5
2010-04-28 09:44:16 51°15.356 2°33.363 57 2.4 67 15.9
2010-04-28 09:45:16 51°15.354 2°33.453 114.8 4.8 119 18.8
2010-04-28 09:46:16 51°15.278 2°33.473 209.1 6.6 211 21.7
2010-04-28 09:47:16 51°15.157 2°33.32 221.3 10.5 221 21.3
2010-04-28 09:48:16 51°15.026 2°33.123 226.4 10.8 224 20.7
2010-04-28 09:49:16 51°14.899 2°32.924 226.5 10.6 224 20.8
2010-04-28 09:50:17 51°14.751 2°32.734 215.7 11.7 213 21.6
2010-04-28 09:51:16 51°14.587 2°32.566 214.2 11.9 213 21.4
2010-04-28 09:52:17 51°14.417 2°32.389 214.8 12 213 22.1
2010-04-28 09:53:16 51°14.253 2°32.216 214.6 12.1 214 22.4
2010-04-28 09:54:17 51°14.084 2°32.04 215.1 11.9 213 22
2010-04-28 09:55:16 51°13.923 2°31.865 219.2 11.8 218 22.2
2010-04-28 09:56:16 51°13.829 2°31.695 250.5 5.4 250 21.2
2010-04-28 09:57:16 51°13.828 2°31.596 283 2.9 284 19.8
2010-04-28 09:58:16 51°13.843 2°31.542 290.4 1.8 298 18.8
2010-04-28 09:59:17 51°13.859 2°31.49 289 2.8 295 16.9
2010-04-28 10:00:16 51°13.899 2°31.436 325.5 3.4 343 14.7
2010-04-28 10:01:17 51°13.961 2°31.439 355.4 4 13 13.2
2010-04-28 10:02:16 51°14.025 2°31.476 7.9 4.3 26 13
2010-04-28 10:03:17 51°14.09 2°31.536 16.4 4.5 33 12.7
2010-04-28 10:04:16 51°14.151 2°31.599 15.1 4.4 32 13
2010-04-28 10:05:16 51°14.211 2°31.658 14.1 4.3 32 12.5
2010-04-28 10:06:16 51°14.27 2°31.718 17.2 4.3 35 12.4
2010-04-28 10:07:16 51°14.328 2°31.788 20 4.3 39 12.2
2010-04-28 10:08:16 51°14.382 2°31.856 16.9 4 38 12.5
2010-04-28 10:09:16 51°14.434 2°31.92 13.9 3.9 36 12.8
2010-04-28 10:10:17 51°14.487 2°31.981 13 3.8 36 12.7
2010-04-28 10:11:16 51°14.537 2°32.041 13.7 3.7 37 12.7
2010-04-28 10:12:16 51°14.587 2°32.1 11.6 3.7 36 12.8
2010-04-28 10:13:16 51°14.637 2°32.151 4.8 3.5 29 13
2010-04-28 10:14:16 51°14.691 2°32.197 2.8 3.8 27 12.7
2010-04-28 10:15:16 51°14.748 2°32.243 3.8 3.9 27 12.5
2010-04-28 10:16:16 51°14.806 2°32.29 3.1 3.9 27 12.4
2010-04-28 10:17:16 51°14.864 2°32.337 3.7 3.8 27 12.3
2010-04-28 10:18:16 51°14.922 2°32.385 7 4 31 11.9
2010-04-28 10:19:17 51°14.979 2°32.444 10.4 4.1 34 11.9
2010-04-28 10:20:16 51°15.035 2°32.504 10.3 4.1 35 12.2
2010-04-28 10:21:16 51°15.092 2°32.565 9.4 4.1 34 12.3
2010-04-28 10:22:16 51°15.146 2°32.635 29.1 4.5 51 12.3
2010-04-28 10:23:16 51°15.176 2°32.751 66.8 4.8 78 12.6
2010-04-28 10:24:16 51°15.175 2°32.881 100.2 4.9 101 13.7
2010-04-28 10:25:16 51°15.146 2°32.998 133.3 4.6 123 15.9
2010-04-28 10:26:16 51°15.095 2°33.078 167.5 4 147 19.5
2010-04-28 10:27:16 51°15.04 2°33.109 198.7 3 173 22
2010-04-28 10:28:16 51°14.999 2°33.107 219.2 1.9 189 22.9
2010-04-28 10:29:16 51°14.976 2°33.102 228.8 1.2 188 22.8
2010-04-28 10:30:16 51°14.966 2°33.075 270.1 1.7 285 22.1
2010-04-28 10:31:16 51°15.011 2°33.042 344.3 4.7 -999 22.1
2010-04-28 10:32:16 51°15.142 2°33.034 351.6 10.3 359 16.6
2010-04-28 10:33:16 51°15.335 2°33.041 355.7 12 2 13.5
2010-04-28 10:34:16 51°15.535 2°33.053 355.1 11.9 2 11.9
2010-04-28 10:35:16 51°15.733 2°33.067 355.6 11.9 3 11.4
2010-04-28 10:36:16 51°15.931 2°33.082 354.4 11.7 359 11.4
2010-04-28 10:37:17 51°16.05 2°32.901 280.5 10.6 280 11.3
2010-04-28 10:38:16 51°16.054 2°32.601 268.7 12.1 270 22.6
2010-04-28 10:39:16 51°16.056 2°32.275 268.3 12.4 270 27.5
2010-04-28 10:40:16 51°16.062 2°31.942 268.5 12.6 271 29.5
2010-04-28 10:41:16 51°16.071 2°31.608 269 12.6 273 29.7
2010-04-28 10:42:16 51°16.044 2°31.282 253.4 12.5 256 29.9
2010-04-28 10:43:16 51°15.983 2°30.968 247.2 12.4 247 31.1
2010-04-28 10:44:16 51°15.88 2°30.685 236.4 12.5 237 31.2
2010-04-28 10:45:16 51°15.77 2°30.406 237.4 12.3 237 31.4
2010-04-28 10:46:16 51°15.638 2°30.157 227 12.3 228 31.2
2010-04-28 10:47:16 51°15.498 2°29.918 227.8 12.4 228 31
2010-04-28 10:48:16 51°15.361 2°29.675 228.2 12.3 228 31.2
2010-04-28 10:49:16 51°15.224 2°29.43 229.2 12.4 229 31.2
2010-04-28 10:50:16 51°15.088 2°29.185 229.1 12.4 229 31.1
2010-04-28 10:51:17 51°14.949 2°28.936 229 12.4 228 31.2
2010-04-28 10:52:16 51°14.817 2°28.694 229.4 12.3 228 31.4
2010-04-28 10:53:16 51°14.681 2°28.45 229.3 12.4 229 31
2010-04-28 10:54:16 51°14.545 2°28.206 229.4 12.4 227 31.1
2010-04-28 10:55:17 51°14.408 2°27.958 230 12.3 228 31
2010-04-28 10:56:16 51°14.275 2°27.716 229.3 12.4 229 30.8
2010-04-28 10:57:17 51°14.135 2°27.468 229 12.4 228 30.4
2010-04-28 10:58:15 51°14.003 2°27.23 229.3 12.4 229 30.3
2010-04-28 10:59:17 51°13.862 2°26.976 229.3 12.4 228 29.6
2010-04-28 11:00:17 51°13.74 2°26.712 244.8 12.3 248 30.7
2010-04-28 11:01:16 51°13.729 2°26.385 272.5 12.9 279 29.7
2010-04-28 11:02:17 51°13.829 2°26.075 309.2 13.8 318 30.2
2010-04-28 11:03:16 51°14.043 2°25.923 339.8 14.6 343 30.2
2010-04-28 11:04:17 51°14.277 2°25.831 342.8 14.1 347 26
2010-04-28 11:05:16 51°14.501 2°25.75 343.5 13.9 348 16.7
2010-04-28 11:06:17 51°14.728 2°25.679 343.6 13.5 349 12.6
2010-04-28 11:07:15 51°14.942 2°25.623 344.1 13.5 351 11.9
2010-04-28 11:08:17 51°15.172 2°25.567 344.1 13.6 351 12.6
2010-04-28 11:09:16 51°15.393 2°25.518 343.4 13.7 352 13.8
2010-04-28 11:10:16 51°15.62 2°25.469 344.8 13.9 354 12.6
2010-04-28 11:11:17 51°15.853 2°25.413 343.6 14 351 16
2010-04-28 11:12:16 51°16.083 2°25.363 345 14.3 354 13.3
2010-04-28 11:13:17 51°16.332 2°25.362 0.9 15.3 10 25.5
2010-04-28 11:14:16 51°16.575 2°25.497 22.6 16 26 30.2
2010-04-28 11:15:17 51°16.812 2°25.709 28.5 16.1 31 33.3
2010-04-28 11:16:15 51°17.037 2°25.917 28.6 16.1 31 34.3
2010-04-28 11:17:17 51°17.276 2°26.142 29.2 16.1 31 35
2010-04-28 11:18:15 51°17.498 2°26.353 29.3 16 31 35.5
2010-04-28 11:19:17 51°17.733 2°26.578 28.9 15.9 31 35.3
2010-04-28 11:20:17 51°17.96 2°26.796 30 15.9 32 35.5
2010-04-28 11:21:16 51°18.183 2°27.01 29.5 16 31 34.3
2010-04-28 11:22:16 51°18.41 2°27.229 29.1 15.9 31 35.6
2010-04-28 11:23:15 51°18.635 2°27.442 29.2 16 30 36.1
2010-04-28 11:24:16 51°18.869 2°27.663 29 16 30 35.9
2010-04-28 11:25:15 51°19.097 2°27.874 28.8 16.1 30 35.3
2010-04-28 11:26:16 51°19.332 2°28.092 29.1 16 30 35.5
2010-04-28 11:27:15 51°19.56 2°28.301 29.1 16.1 29 34.2
2010-04-28 11:28:17 51°19.801 2°28.519 29.7 16.1 30 34.1
2010-04-28 11:29:16 51°20.03 2°28.728 29.3 16.1 30 32
2010-04-28 11:30:16 51°20.263 2°28.94 29.5 16.2 29 33.3
2010-04-28 11:31:16 51°20.497 2°29.15 28.8 16.1 29 32.8
2010-04-28 11:32:16 51°20.731 2°29.364 29.4 16.2 30 32
2010-04-28 11:33:17 51°20.97 2°29.582 29.4 16.2 30 30.2
2010-04-28 11:34:15 51°21.196 2°29.786 29.4 15.9 30 26.8
2010-04-28 11:35:17 51°21.442 2°29.974 19.7 15.8 19 28.9
2010-04-28 11:36:18 51°21.696 2°30.101 12.6 15.8 16 34.2
2010-04-28 11:37:19 51°21.955 2°30.183 7.7 15.5 10 35.3
2010-04-28 11:38:31 51°22.26 2°30.218 353.1 15.1 355 34.4
2010-04-28 11:39:51 51°22.59 2°30.137 344.8 15 350 35.1
2010-04-28 11:40:51 51°22.837 2°30.07 345.5 15 351 35.8
2010-04-28 11:41:51 51°23.085 2°30.009 346.2 15 351 36.4
2010-04-28 11:42:51 51°23.331 2°29.949 346.9 15 351 36.3
2010-04-28 11:43:51 51°23.579 2°29.89 347 15.1 351 36.7
2010-04-28 11:44:51 51°23.828 2°29.831 347.1 15.1 352 36.1
2010-04-28 11:45:51 51°24.074 2°29.77 347.2 14.9 352 36.4
2010-04-28 11:46:50 51°24.316 2°29.715 347.7 14.9 352 36.9
2010-04-28 11:47:51 51°24.568 2°29.668 351.2 15.3 356 36.6
2010-04-28 11:48:50 51°24.821 2°29.669 357.2 15.4 1 36.2
2010-04-28 11:49:51 51°25.076 2°29.678 356.8 15 2 34.9
2010-04-28 11:50:50 51°25.319 2°29.751 11 15.1 13 34.5
2010-04-28 11:51:51 51°25.565 2°29.874 16.6 15.3 23 34.3
2010-04-28 11:52:50 51°25.782 2°30.078 32 15.5 33 34.3
2010-04-28 11:53:51 51°26.003 2°30.303 31.3 15.5 32 34.8
2010-04-28 11:54:50 51°26.218 2°30.513 30.2 15.2 32 32.2
2010-04-28 11:55:50 51°26.436 2°30.724 30.4 15.3 31 33.9
2010-04-28 11:56:51 51°26.659 2°30.936 29.3 15.3 30 32.9
2010-04-28 11:57:50 51°26.861 2°31.174 40 15.4 40 32.3
2010-04-28 11:58:51 51°27.059 2°31.444 40.6 15.4 41 33.7
2010-04-28 11:59:50 51°27.252 2°31.705 39.9 15.4 40 34.4
2010-04-28 12:00:51 51°27.455 2°31.968 38.6 15.4 38 33.7
2010-04-28 12:01:50 51°27.652 2°32.219 37.9 15.4 38 33.9
2010-04-28 12:02:51 51°27.855 2°32.482 38.6 15.4 38 34.1
2010-04-28 12:03:50 51°28.051 2°32.736 38.1 15.4 39 37.1
2010-04-28 12:04:50 51°28.253 2°32.985 33.7 15.3 34 36.9
2010-04-28 12:05:51 51°28.473 2°33.206 31.1 15.3 33 37.2
2010-04-28 12:06:50 51°28.687 2°33.419 30.9 15.3 32 37
2010-04-28 12:07:51 51°28.915 2°33.613 25.7 15.1 26 38.4
2010-04-28 12:08:50 51°29.136 2°33.795 25.8 15.2 26 37
2010-04-28 12:09:51 51°29.364 2°33.986 25.6 15.4 27 37.2
2010-04-28 12:10:50 51°29.594 2°34.134 13.4 14.9 13 37.9
2010-04-28 12:11:50 51°29.838 2°34.215 9.8 15.1 15 34.9
2010-04-28 12:12:50 51°30.077 2°34.342 18.9 15.1 20 37.1
2010-04-28 12:13:50 51°30.312 2°34.48 20.4 15.2 22 38
2010-04-28 12:14:50 51°30.55 2°34.609 13.4 14.9 12 37.5
2010-04-28 12:15:50 51°30.795 2°34.686 8.5 15 11 37.9
2010-04-28 12:16:51 51°31.045 2°34.766 9.5 15.1 11 37.6
2010-04-28 12:17:50 51°31.286 2°34.846 10 15 13 37.5
2010-04-28 12:18:51 51°31.534 2°34.93 10.5 15 13 36.5
2010-04-28 12:19:50 51°31.775 2°35.013 9.6 15.1 12 37.2
2010-04-28 12:20:51 51°32.023 2°35.101 10.7 15.1 13 36
2010-04-28 12:21:50 51°32.265 2°35.185 10.4 15.1 13 34.5
2010-04-28 12:22:50 51°32.509 2°35.272 10.5 14.9 13 33.6
2010-04-28 12:23:50 51°32.754 2°35.364 10.6 15.1 13 30.8
2010-04-28 12:24:50 51°33 2°35.454 10.1 15.1 12 32
2010-04-28 12:25:51 51°33.249 2°35.543 10 15 11 29.8
2010-04-28 12:26:50 51°33.489 2°35.626 9.5 14.9 12 29.3
2010-04-28 12:27:51 51°33.738 2°35.712 9.6 15.1 12 30.5
2010-04-28 12:28:50 51°33.977 2°35.813 16.5 15.1 16 31.7
2010-04-28 12:29:51 51°34.223 2°35.931 14.8 15.2 16 32.1
2010-04-28 12:30:50 51°34.462 2°36.039 14.6 15.2 15 32.7
2010-04-28 12:31:50 51°34.706 2°36.147 15.3 15.2 15 34.5
2010-04-28 12:32:50 51°34.95 2°36.258 14.6 15.3 17 34.4
2010-04-28 12:33:50 51°35.196 2°36.372 14.4 15.4 16 37.8
2010-04-28 12:34:51 51°35.448 2°36.49 14.2 15.5 14 37.5
2010-04-28 12:35:50 51°35.692 2°36.605 14.4 15.5 16 38.5
2010-04-28 12:36:51 51°35.946 2°36.721 14.1 15.5 17 38.1
2010-04-28 12:37:50 51°36.192 2°36.834 14.2 15.5 15 38
2010-04-28 12:38:50 51°36.44 2°36.949 14.5 15.5 16 39.5
2010-04-28 12:39:50 51°36.689 2°37.061 14.1 15.6 15 40.4
2010-04-28 12:40:50 51°36.939 2°37.169 14.5 15.6 14 39.2
2010-04-28 12:41:50 51°37.189 2°37.277 14.6 15.6 16 39.9
2010-04-28 12:42:50 51°37.441 2°37.383 14.3 15.6 15 41
2010-04-28 12:43:51 51°37.696 2°37.491 13.6 15.7 13 40.6
2010-04-28 12:44:50 51°37.947 2°37.576 9.9 15.6 10 42.8
2010-04-28 12:45:51 51°38.202 2°37.589 345.8 14.7 349 40.4
2010-04-28 12:46:50 51°38.423 2°37.44 330.1 14.6 336 41.7
2010-04-28 12:47:50 51°38.645 2°37.272 330 14.8 336 42.5
2010-04-28 12:48:50 51°38.859 2°37.167 325.2 11.4 327 42.1
2010-04-28 12:49:50 51°39.007 2°36.987 316.1 11.2 324 41.5
2010-04-28 12:50:51 51°39.148 2°36.801 295.3 9.6 295 42
2010-04-28 12:51:50 51°39.105 2°36.612 232.6 8.2 234 41.4
2010-04-28 12:52:50 51°39.018 2°36.437 227.2 9 227 40.6
2010-04-28 12:53:50 51°38.895 2°36.287 213.5 9.5 210 39.3
2010-04-28 12:54:51 51°38.781 2°36.182 216.5 5.8 212 39.2
2010-04-28 12:55:50 51°38.705 2°36.16 184.8 4.6 166 39.2
2010-04-28 12:56:51 51°38.642 2°36.222 161.7 4.1 138 39.9
2010-04-28 12:57:50 51°38.6 2°36.302 149.8 3.8 123 41
2010-04-28 12:58:50 51°38.574 2°36.391 137 3.6 108 41.9
2010-04-28 12:59:50 51°38.565 2°36.566 99.6 11 90 42.3
2010-04-28 13:00:50 51°38.644 2°36.89 47.2 14.3 37 42.1
2010-04-28 13:01:51 51°38.843 2°36.827 305.6 12.3 301 41.6
2010-04-28 13:02:50 51°38.766 2°36.617 197.3 11 181 41.2
2010-04-28 13:03:50 51°38.674 2°36.869 89.5 13.9 74 42.4
2010-04-28 13:04:50 51°38.863 2°36.989 337.7 12.8 332 41.5
2010-04-28 13:05:51 51°38.885 2°36.751 231.4 8.2 226 42.1
2010-04-28 13:06:50 51°38.783 2°36.719 180.5 4.5 165 42.6
2010-04-28 13:07:51 51°38.736 2°36.784 150.2 3.4 119 42.2
2010-04-28 13:08:50 51°38.739 2°36.903 83.7 7 69 42.2
2010-04-28 13:09:51 51°38.875 2°37.077 23.1 12.9 21 41.8
2010-04-28 13:10:50 51°39.102 2°37.091 342.6 13.8 338 42.2
2010-04-28 13:11:51 51°39.261 2°36.838 303 13.6 305 42.9
2010-04-28 13:12:51 51°39.285 2°36.527 247.5 11.2 239 40.3
2010-04-28 13:13:51 51°39.114 2°36.514 159 12.7 149 40.7
2010-04-28 13:14:51 51°38.994 2°36.806 107.5 14.2 95 41.7
2010-04-28 13:15:50 51°39.127 2°37.078 16.6 13.9 8 41.8
2010-04-28 13:16:51 51°39.247 2°36.876 260.7 10.7 255 42.4
2010-04-28 13:17:50 51°39.091 2°36.844 162.3 12.4 155 42
2010-04-28 13:18:51 51°38.909 2°37.048 149.9 13.3 146 42.1
2010-04-28 13:19:50 51°38.73 2°37.244 153.3 13.2 146 42.3
2010-04-28 13:20:51 51°38.546 2°37.447 152.7 13.1 144 42.3
2010-04-28 13:21:51 51°38.381 2°37.685 153 13 148 41.7
2010-04-28 13:22:51 51°38.2 2°37.881 150.4 13.1 145 37.2
2010-04-28 13:23:51 51°38.014 2°38.058 155.9 12.9 151 40.7
2010-04-28 13:24:51 51°37.838 2°38.266 152.5 13.1 146 39.9
2010-04-28 13:25:51 51°37.652 2°38.444 158 12.9 152 40.3
2010-04-28 13:26:50 51°37.464 2°38.603 159 13 151 41.1
2010-04-28 13:27:50 51°37.273 2°38.765 158.8 12.9 153 44.8
2010-04-28 13:28:50 51°37.083 2°38.926 159 13 152 42.7
2010-04-28 13:29:51 51°36.888 2°39.092 159.6 13 153 40.4
2010-04-28 13:30:50 51°36.701 2°39.253 159.1 13 151 39
2010-04-28 13:31:51 51°36.506 2°39.419 158.7 12.9 151 36.3
2010-04-28 13:32:51 51°36.321 2°39.592 155.3 13 147 34.8
2010-04-28 13:33:51 51°36.143 2°39.788 154 13.1 146 31.7
2010-04-28 13:34:51 51°35.962 2°39.985 154.1 13.2 146 29.2
2010-04-28 13:35:50 51°35.783 2°40.178 154.3 13.2 146 27.8
2010-04-28 13:36:51 51°35.597 2°40.382 154.1 13.3 145 25.5
2010-04-28 13:37:50 51°35.415 2°40.579 153.6 13.5 145 26.1
2010-04-28 13:38:50 51°35.228 2°40.78 154 13.5 147 23.3
2010-04-28 13:39:50 51°35.04 2°40.977 154 13.5 148 27.4
2010-04-28 13:40:51 51°34.848 2°41.174 154.1 13.4 148 38.7
2010-04-28 13:41:50 51°34.659 2°41.351 161 13.1 155 42.4
2010-04-28 13:42:51 51°34.456 2°41.479 165.6 12.9 159 41.4
2010-04-28 13:43:51 51°34.256 2°41.604 165.1 12.9 158 42.1
2010-04-28 13:44:50 51°34.062 2°41.727 165 12.7 158 41.7
2010-04-28 13:45:50 51°33.866 2°41.852 164.5 12.5 160 39.6
2010-04-28 13:46:50 51°33.669 2°41.974 164.8 12.6 159 39
2010-04-28 13:47:51 51°33.469 2°42.101 164.2 12.6 159 37.3
2010-04-28 13:48:50 51°33.276 2°42.219 164.1 12.6 158 36.8
2010-04-28 13:49:50 51°33.08 2°42.344 163.6 12.7 158 37.9
2010-04-28 13:50:51 51°32.881 2°42.472 164.1 12.6 158 35.2
2010-04-28 13:51:50 51°32.689 2°42.594 165.8 12.5 159 34.4
2010-04-28 13:52:51 51°32.489 2°42.715 165.1 12.7 159 34.5
2010-04-28 13:53:50 51°32.294 2°42.83 165.3 12.7 161 32.4
2010-04-28 13:54:51 51°32.092 2°42.949 165.6 12.8 159 32.2
2010-04-28 13:55:50 51°31.895 2°43.065 164.9 12.8 160 31.1
2010-04-28 13:56:50 51°31.695 2°43.187 165 12.8 159 24.8
2010-04-28 13:57:50 51°31.493 2°43.31 165.4 13.1 159 29.6
2010-04-28 13:58:50 51°31.292 2°43.434 165 13.1 158 32.6
2010-04-28 13:59:51 51°31.088 2°43.559 165.2 12.9 159 35
2010-04-28 14:00:50 51°30.891 2°43.679 165 12.9 160 36.7
2010-04-28 14:01:51 51°30.686 2°43.803 165.4 12.7 160 33.8
2010-04-28 14:02:50 51°30.49 2°43.925 165.6 12.7 160 35.7
2010-04-28 14:03:51 51°30.285 2°44.04 164.9 12.9 161 35.7
2010-04-28 14:04:50 51°30.085 2°44.153 165.2 12.9 159 34.4
2010-04-28 14:05:50 51°29.883 2°44.268 165.9 12.9 161 33.9
2010-04-28 14:06:51 51°29.676 2°44.384 164.8 13 160 32.6
2010-04-28 14:07:50 51°29.478 2°44.499 164.9 12.9 160 29.4
2010-04-28 14:08:51 51°29.274 2°44.622 164.8 12.9 158 30.5
2010-04-28 14:09:50 51°29.076 2°44.741 164.6 13 158 29.5
2010-04-28 14:10:51 51°28.872 2°44.865 165.4 13 158 27.9
2010-04-28 14:11:50 51°28.675 2°44.989 165.4 12.9 159 29.5
2010-04-28 14:12:51 51°28.469 2°45.115 165.5 13 159 29.9
2010-04-28 14:13:50 51°28.267 2°45.233 165.4 13.1 160 28.8
2010-04-28 14:14:50 51°28.059 2°45.35 165.5 13.3 161 29.4
2010-04-28 14:15:50 51°27.851 2°45.464 165.6 13.3 162 28.2
2010-04-28 14:16:50 51°27.643 2°45.578 165.6 13.3 161 29
2010-04-28 14:17:51 51°27.432 2°45.695 164.5 13.1 161 30
2010-04-28 14:18:50 51°27.228 2°45.806 165 13 161 31.1
2010-04-28 14:19:51 51°27.019 2°45.921 165.1 13.1 162 32
2010-04-28 14:20:50 51°26.817 2°46.032 165 13.1 160 33.3
2010-04-28 14:21:50 51°26.611 2°46.149 165.2 13.1 161 30.3
2010-04-28 14:22:50 51°26.403 2°46.258 165.3 13.1 162 28.7
2010-04-28 14:23:50 51°26.195 2°46.368 165 13 160 26.9
2010-04-28 14:24:50 51°25.988 2°46.481 165.1 13.1 161 26.3
2010-04-28 14:25:50 51°25.781 2°46.593 165.4 13 161 24.8
2010-04-28 14:26:51 51°25.571 2°46.707 164.8 13.1 161 25.7
2010-04-28 14:27:50 51°25.368 2°46.816 165.1 13.2 162 26.9
2010-04-28 14:28:51 51°25.156 2°46.928 165.9 13.1 161 26.4
2010-04-28 14:29:50 51°24.952 2°47.037 165.4 13.1 162 28.3
2010-04-28 14:30:50 51°24.744 2°47.147 165.1 13.2 162 31.2
2010-04-28 14:31:50 51°24.537 2°47.257 164.6 13.1 162 32.2
2010-04-28 14:32:50 51°24.332 2°47.375 160.1 13 157 29.4
2010-04-28 14:33:50 51°24.139 2°47.54 153.5 13.3 149 25.2
2010-04-28 14:34:50 51°23.946 2°47.714 153 13.3 150 24.8
2010-04-28 14:35:50 51°23.751 2°47.889 153.9 13.5 150 22.7
2010-04-28 14:36:50 51°23.557 2°48.062 154.3 13.3 152 21.8
2010-04-28 14:37:51 51°23.358 2°48.236 154.3 13.5 151 22.9
2010-04-28 14:38:50 51°23.165 2°48.404 153.6 13.5 152 22.9
2010-04-28 14:39:50 51°22.97 2°48.576 154.5 13.4 150 21.2
2010-04-28 14:40:50 51°22.776 2°48.749 153.7 13.4 150 16.5
2010-04-28 14:41:50 51°22.58 2°48.915 157.6 13.5 155 20
2010-04-28 14:42:50 51°22.38 2°49.07 157.3 13.4 154 24.2
2010-04-28 14:43:50 51°22.177 2°49.224 157.8 13.5 154 25
2010-04-28 14:44:50 51°21.974 2°49.377 157.6 13.5 154 24.7
2010-04-28 14:45:50 51°21.769 2°49.523 159.7 13.6 157 24.4
2010-04-28 14:46:51 51°21.559 2°49.665 159 13.5 156 23.2
2010-04-28 14:47:50 51°21.356 2°49.807 159 13.7 154 23.8
2010-04-28 14:48:51 51°21.148 2°49.953 159 13.4 156 24.5
2010-04-28 14:49:50 51°20.948 2°50.09 158.5 13.3 158 24.7
2010-04-28 14:50:50 51°20.739 2°50.208 164.5 13.3 162 23.8
2010-04-28 14:51:50 51°20.532 2°50.32 162.3 13.1 162 21.1
2010-04-28 14:52:50 51°20.327 2°50.444 161.4 13.2 159 18.1
2010-04-28 14:53:50 51°20.12 2°50.563 161.7 13.3 161 16.8
2010-04-28 14:54:50 51°19.911 2°50.681 161.7 13.4 160 14.2
2010-04-28 14:55:51 51°19.698 2°50.801 161.7 13.5 160 13.3
2010-04-28 14:56:50 51°19.491 2°50.919 161.2 13.4 161 15
2010-04-28 14:57:51 51°19.277 2°51.041 161.3 13.5 160 16.2
2010-04-28 14:58:50 51°19.071 2°51.159 161.4 13.6 159 16.2
2010-04-28 14:59:50 51°18.86 2°51.282 161.4 13.5 160 15.8
2010-04-28 15:00:50 51°18.65 2°51.403 161.5 13.6 160 15.1
2010-04-28 15:01:50 51°18.44 2°51.524 161.3 13.4 160 13.9
2010-04-28 15:02:50 51°18.231 2°51.644 161.4 13.3 161 12.7
2010-04-28 15:03:50 51°18.022 2°51.764 161.6 13.3 160 11.9
2010-04-28 15:04:51 51°17.813 2°51.899 156.7 13.3 155 11.2
2010-04-28 15:05:50 51°17.614 2°52.05 155.6 13.6 153 12.2
2010-04-28 15:06:51 51°17.409 2°52.206 154.4 13.4 154 12.5
2010-04-28 15:07:50 51°17.212 2°52.366 153.9 13.5 153 11.1
2010-04-28 15:08:50 51°17.014 2°52.532 154.3 13.3 151 10.7
2010-04-28 15:09:50 51°16.818 2°52.702 154.6 13.4 153 10.4
2010-04-28 15:10:50 51°16.619 2°52.866 154.5 13.4 152 12.3
2010-04-28 15:11:50 51°16.417 2°53.022 156.3 13.2 154 12.9
2010-04-28 15:12:50 51°16.264 2°53.141 156.7 8.2 154 13.1
2010-04-28 15:13:50 51°16.161 2°53.229 157.3 6.4 153 13
2010-04-28 15:14:50 51°16.058 2°53.311 159.3 7.3 155 12.9
2010-04-28 15:15:51 51°15.943 2°53.394 159 7.5 156 12.8
2010-04-28 15:16:50 51°15.833 2°53.482 153.7 7.5 151 12.8
2010-04-28 15:17:50 51°15.722 2°53.58 152.1 7.7 150 12.6
2010-04-28 15:18:50 51°15.612 2°53.688 152.5 7.5 150 12.3
2010-04-28 15:19:50 51°15.511 2°53.785 150.3 6.7 147 11.9
2010-04-28 15:20:50 51°15.423 2°53.884 147.2 6.4 144 11.8
2010-04-28 15:21:50 51°15.336 2°53.981 148.2 6.4 146 11.5
2010-04-28 15:22:51 51°15.223 2°54.112 145.4 9.8 144 11
2010-04-28 15:23:50 51°15.081 2°54.296 142 12 140 10.5
2010-04-28 15:24:50 51°14.927 2°54.514 141.5 12.6 138 10.9
2010-04-28 15:25:50 51°14.769 2°54.723 143.7 12.3 142 12.9
2010-04-28 15:26:50 51°14.603 2°54.919 144.5 12.5 147 12.5
2010-04-28 15:27:50 51°14.437 2°55.096 144.7 10 145 11.2
2010-04-28 15:28:50 51°14.33 2°55.22 144.9 6.9 144 11.3
2010-04-28 15:29:50 51°14.241 2°55.317 148.7 6.2 148 11.8
2010-04-28 15:30:50 51°14.151 2°55.397 151.6 6.4 151 11.7
2010-04-28 15:31:50 51°14.05 2°55.473 156.1 6.7 155 11.6
2010-04-28 15:32:50 51°13.947 2°55.546 156.1 6.9 156 11.7
2010-04-28 15:33:51 51°13.847 2°55.622 154.9 6.1 155 -999
2010-04-28 15:34:54 51°13.763 2°55.704 142.3 5.1 140 5.3
2010-04-28 15:35:54 51°13.714 2°55.793 126.4 4.1 124 -999
2010-04-28 15:36:54 51°13.68 2°55.884 115.6 4 117 -999
2010-04-28 15:37:54 51°13.663 2°55.956 119.9 1.1 111 -999